createdAt,value
2023-01-23T00:03:16.298Z,8.15
2023-01-23T00:06:18.979Z,7.65
2023-01-23T00:09:20.257Z,9.05
2023-01-23T00:12:23.443Z,7.93
2023-01-23T00:15:26.037Z,7.63
2023-01-23T00:18:28.867Z,7.88
2023-01-23T00:21:31.613Z,7.78
2023-01-23T00:24:32.901Z,7.50
2023-01-23T00:27:36.284Z,8.00
2023-01-23T00:30:38.937Z,7.88
2023-01-23T00:33:41.825Z,7.22
2023-01-23T00:36:46.039Z,7.80
2023-01-23T00:39:50.167Z,7.78
2023-01-23T00:42:54.371Z,8.03
2023-01-23T00:45:57.299Z,7.82
2023-01-23T00:48:58.595Z,7.68
2023-01-23T00:52:01.113Z,7.68
2023-01-23T00:55:02.647Z,7.20
2023-01-23T00:58:05.927Z,7.70
2023-01-23T01:01:08.692Z,7.85
2023-01-23T01:04:10.048Z,7.95
2023-01-23T01:07:12.620Z,7.95
2023-01-23T01:10:14.740Z,8.35
2023-01-23T01:13:21.764Z,8.13
2023-01-23T01:16:25.244Z,8.88
2023-01-23T01:19:27.532Z,8.40
2023-01-23T01:22:30.105Z,7.70
2023-01-23T01:25:31.416Z,8.40
2023-01-23T01:28:36.327Z,8.10
2023-01-23T01:31:37.697Z,7.35
2023-01-23T01:34:40.308Z,7.75
2023-01-23T01:37:41.839Z,7.57
2023-01-23T01:40:44.426Z,9.10
2023-01-23T01:43:47.631Z,8.00
2023-01-23T01:46:49.868Z,8.25
2023-01-23T01:49:56.866Z,8.15
2023-01-23T01:52:59.506Z,8.38
2023-01-23T01:56:02.373Z,8.20
2023-01-23T01:59:06.989Z,8.10
2023-01-23T02:02:11.893Z,8.50
2023-01-23T02:05:18.974Z,7.90
2023-01-23T02:08:25.575Z,7.95
2023-01-23T02:11:26.911Z,8.05
2023-01-23T02:14:30.157Z,7.50
2023-01-23T02:17:33.348Z,8.30
2023-01-23T02:20:36.039Z,8.10
2023-01-23T02:23:51.307Z,7.75
2023-01-23T02:26:54.490Z,7.75
2023-01-23T02:29:55.804Z,8.20
2023-01-23T02:33:09.233Z,8.98
2023-01-23T02:36:11.917Z,8.50
2023-01-23T02:39:16.365Z,8.20
2023-01-23T02:42:19.495Z,8.60
2023-01-23T02:45:21.999Z,8.30
2023-01-23T02:48:23.556Z,9.70
2023-01-23T02:51:26.170Z,9.45
2023-01-23T02:54:27.544Z,8.63
2023-01-23T02:57:30.757Z,9.65
2023-01-23T03:00:31.797Z,8.53
2023-01-23T03:06:55.729Z,8.88
2023-01-23T03:09:57.036Z,8.77
2023-01-23T03:13:03.836Z,9.35
2023-01-23T03:16:07.457Z,8.63
2023-01-23T03:19:10.344Z,8.15
2023-01-23T03:22:13.054Z,8.88
2023-01-23T03:25:14.761Z,9.27
2023-01-23T03:28:32.545Z,8.05
2023-01-23T03:31:35.211Z,8.43
2023-01-23T03:34:36.575Z,8.52
2023-01-23T03:37:39.244Z,8.55
2023-01-23T03:40:58.789Z,8.55
2023-01-23T03:44:02.117Z,9.10
2023-01-23T03:47:03.822Z,9.27
2023-01-23T03:50:08.175Z,8.43
2023-01-23T03:53:10.758Z,8.98
2023-01-23T03:56:12.041Z,9.55
2023-01-23T03:59:15.574Z,8.25
2023-01-23T04:02:17.099Z,8.77
2023-01-23T04:12:00.690Z,8.50
2023-01-23T04:15:04.068Z,7.78
2023-01-23T04:18:06.809Z,8.70
2023-01-23T04:21:08.351Z,8.20
2023-01-23T04:24:10.889Z,9.05
2023-01-23T04:27:12.200Z,9.93
2023-01-23T04:33:37.346Z,8.73
2023-01-23T04:36:38.748Z,8.88
2023-01-23T04:39:41.416Z,9.50
2023-01-23T04:42:42.767Z,9.15
2023-01-23T04:45:46.178Z,9.40
2023-01-23T04:48:48.892Z,8.70
2023-01-23T04:51:51.563Z,9.23
2023-01-23T04:54:52.909Z,8.83
2023-01-23T04:57:55.494Z,9.20
2023-01-23T05:01:02.556Z,10.10
2023-01-23T05:04:04.722Z,9.55
2023-01-23T05:07:06.306Z,8.53
2023-01-23T05:10:09.331Z,10.10
2023-01-23T05:13:11.893Z,9.18
2023-01-23T05:16:14.034Z,9.57
2023-01-23T05:19:15.502Z,8.20
2023-01-23T05:22:17.595Z,7.77
2023-01-23T05:25:20.849Z,9.33
2023-01-23T05:28:22.184Z,9.20
2023-01-23T05:31:25.508Z,9.18
2023-01-23T05:34:26.977Z,9.55
2023-01-23T05:37:28.315Z,10.50
2023-01-23T05:40:29.729Z,8.43
2023-01-23T05:43:32.280Z,8.65
2023-01-23T05:46:34.277Z,9.63
2023-01-23T05:49:37.037Z,9.10
2023-01-23T05:55:59.365Z,8.90
2023-01-23T05:59:01.928Z,8.05
2023-01-23T06:02:04.207Z,9.27
2023-01-23T06:05:07.836Z,8.98
2023-01-23T06:08:09.155Z,10.17
2023-01-23T06:11:11.693Z,8.80
2023-01-23T06:14:13.012Z,8.75
2023-01-23T06:17:15.330Z,10.18
2023-01-23T06:20:18.583Z,10.10
2023-01-23T06:23:20.310Z,9.73
2023-01-23T06:26:22.866Z,9.47
2023-01-23T06:29:25.457Z,9.70
2023-01-23T06:32:27.436Z,9.55
2023-01-23T06:35:29.279Z,9.27
2023-01-23T06:38:30.956Z,9.57
2023-01-23T06:41:33.856Z,9.60
2023-01-23T06:44:35.655Z,10.10
2023-01-23T06:47:39.016Z,9.85
2023-01-23T06:50:42.307Z,9.38
2023-01-23T06:53:43.601Z,8.47
2023-01-23T06:56:46.158Z,9.87
2023-01-23T06:59:47.468Z,8.77
2023-01-23T07:02:49.677Z,9.43
2023-01-23T07:05:51.526Z,10.32
2023-01-23T07:08:54.147Z,9.37
2023-01-23T07:11:56.879Z,9.60
2023-01-23T07:14:58.276Z,10.30
2023-01-23T07:18:01.758Z,10.70
2023-01-23T07:21:05.055Z,9.25
2023-01-23T07:24:06.748Z,9.63
2023-01-23T07:27:08.144Z,9.33
2023-01-23T07:30:11.785Z,9.93
2023-01-23T07:33:14.175Z,9.93
2023-01-23T07:36:17.723Z,10.07
2023-01-23T07:39:19.116Z,9.43
2023-01-23T07:42:21.780Z,9.50
2023-01-23T07:45:23.119Z,9.30
2023-01-23T07:48:26.385Z,9.50
2023-01-23T07:51:28.958Z,9.02
2023-01-23T07:54:30.462Z,9.00
2023-01-23T07:57:33.228Z,9.33
2023-01-23T08:00:34.712Z,9.25
2023-01-23T08:03:38.061Z,9.73
2023-01-23T08:06:39.421Z,9.90
2023-01-23T08:09:40.905Z,10.43
2023-01-23T08:12:42.225Z,8.97
2023-01-23T08:15:43.585Z,10.32
2023-01-23T08:18:45.669Z,8.98
2023-01-23T08:21:47.001Z,8.98
2023-01-23T08:28:10.474Z,8.83
2023-01-23T08:31:13.272Z,9.23
2023-01-23T08:34:16.681Z,10.23
2023-01-23T08:37:17.995Z,9.85
2023-01-23T08:40:20.254Z,9.07
2023-01-23T08:43:23.071Z,10.07
2023-01-23T08:46:24.363Z,9.60
2023-01-23T08:49:27.751Z,10.48
2023-01-23T08:52:29.037Z,9.20
2023-01-23T08:55:31.911Z,9.80
2023-01-23T08:58:33.812Z,10.03
2023-01-23T09:01:35.233Z,9.38
2023-01-23T09:04:37.822Z,9.80
2023-01-23T09:07:40.138Z,9.73
2023-01-23T09:10:42.780Z,9.65
2023-01-23T09:13:46.752Z,9.10
2023-01-23T09:16:48.058Z,8.63
2023-01-23T09:19:51.591Z,9.82
2023-01-23T09:22:52.911Z,9.90
2023-01-23T09:25:55.514Z,9.60
2023-01-23T09:28:56.804Z,10.05
2023-01-23T09:31:59.424Z,9.00
2023-01-23T09:35:01.401Z,9.90
2023-01-23T09:38:06.315Z,8.50
2023-01-23T09:41:11.436Z,9.48
2023-01-23T09:44:20.069Z,9.57
2023-01-23T09:47:27.328Z,9.80
2023-01-23T09:50:34.043Z,10.00
2023-01-23T09:53:39.047Z,9.50
2023-01-23T09:56:46.037Z,10.52
2023-01-23T10:00:00.203Z,9.07
2023-01-23T10:03:11.587Z,9.40
2023-01-23T10:06:22.332Z,9.07
2023-01-23T10:09:41.211Z,10.18
2023-01-23T10:12:56.186Z,10.00
2023-01-23T10:16:10.159Z,10.43
2023-01-23T10:19:25.690Z,9.17
2023-01-23T10:22:41.050Z,9.30
2023-01-23T10:25:44.258Z,10.25
2023-01-23T10:28:47.627Z,9.95
2023-01-23T10:31:53.581Z,10.50
2023-01-23T10:35:04.201Z,9.97
2023-01-23T10:38:18.018Z,9.52
2023-01-23T10:41:23.058Z,9.57
2023-01-23T10:44:26.040Z,10.23
2023-01-23T10:47:34.528Z,9.98
2023-01-23T10:50:39.996Z,9.30
2023-01-23T10:53:42.003Z,9.90
2023-01-23T10:56:52.369Z,9.57
2023-01-23T10:59:56.818Z,9.98
2023-01-23T11:03:24.277Z,10.40
2023-01-23T11:06:27.480Z,10.23
2023-01-23T11:09:30.625Z,10.00
2023-01-23T11:12:34.161Z,10.18
2023-01-23T11:15:40.115Z,10.25
2023-01-23T11:18:45.851Z,10.10
2023-01-23T11:21:55.222Z,8.50
2023-01-23T11:24:58.708Z,10.30
2023-01-23T11:28:02.229Z,10.85
2023-01-23T11:31:14.484Z,9.23
2023-01-23T11:34:19.833Z,9.85
2023-01-23T11:37:27.842Z,9.20
2023-01-23T11:40:30.255Z,10.23
2023-01-23T11:43:31.651Z,10.15
2023-01-23T11:47:06.314Z,9.55
2023-01-23T11:50:28.636Z,9.57
2023-01-23T11:53:42.875Z,9.90
2023-01-23T11:57:01.869Z,9.95
2023-01-23T12:00:20.569Z,9.32
2023-01-23T12:03:51.401Z,10.25
2023-01-23T12:07:18.211Z,9.43
2023-01-23T12:10:27.160Z,8.97
2023-01-23T12:14:00.443Z,9.65
2023-01-23T12:17:23.349Z,9.02
2023-01-23T12:20:38.736Z,10.43
2023-01-23T12:23:55.777Z,10.10
2023-01-23T12:27:02.121Z,10.17
2023-01-23T12:30:28.448Z,9.88
2023-01-23T12:33:47.435Z,10.68
2023-01-23T12:37:16.821Z,9.27
2023-01-23T12:40:36.661Z,8.88
2023-01-23T12:43:47.815Z,9.17
2023-01-23T12:46:54.853Z,9.05
2023-01-23T12:50:00.536Z,10.18
2023-01-23T12:53:06.776Z,9.27
2023-01-23T12:56:13.527Z,9.18
2023-01-23T12:59:23.915Z,8.30
2023-01-23T13:02:39.786Z,9.70
2023-01-23T13:05:53.168Z,9.38
2023-01-23T13:09:16.752Z,9.48
2023-01-23T13:12:22.489Z,9.05
2023-01-23T13:15:39.872Z,8.57
2023-01-23T13:19:08.938Z,8.52
2023-01-23T13:22:29.939Z,8.73
2023-01-23T13:25:38.652Z,8.93
2023-01-23T13:28:46.240Z,9.15
2023-01-23T13:31:52.225Z,8.70
2023-01-23T13:34:54.807Z,8.57
2023-01-23T13:38:00.059Z,8.68
2023-01-23T13:41:30.226Z,8.13
2023-01-23T13:44:42.092Z,7.55
2023-01-23T14:29:38.451Z,6.78
2023-01-23T14:36:02.759Z,7.95
2023-01-23T14:39:05.297Z,7.30
2023-01-23T14:42:11.653Z,7.80
2023-01-23T14:45:15.768Z,7.13
2023-01-23T14:48:19.965Z,6.90
2023-01-23T14:51:24.072Z,7.05
2023-01-23T14:54:32.576Z,6.45
2023-01-23T14:57:36.186Z,7.17
2023-01-23T15:00:46.281Z,7.60
2023-01-23T15:03:57.417Z,6.82
2023-01-23T15:07:01.160Z,6.55
2023-01-23T15:10:03.043Z,7.40
2023-01-23T15:13:10.532Z,8.10
2023-01-23T15:16:18.792Z,7.85
2023-01-23T15:19:23.434Z,7.38
2023-01-23T15:22:26.396Z,7.82
2023-01-23T15:28:52.000Z,7.70
2023-01-23T15:31:56.403Z,6.63
2023-01-23T15:34:58.391Z,7.20
2023-01-23T15:38:04.083Z,7.50
2023-01-23T15:41:09.512Z,7.18
2023-01-23T15:44:16.512Z,7.60
2023-01-23T15:47:19.093Z,7.63
2023-01-23T15:50:20.500Z,6.55
2023-01-23T15:53:23.362Z,6.63
2023-01-23T15:56:29.212Z,6.90
2023-01-23T15:59:34.571Z,6.53
2023-01-23T16:05:57.885Z,6.55
2023-01-23T16:09:05.773Z,6.63
2023-01-23T16:12:16.371Z,6.57
2023-01-23T16:15:20.783Z,6.10
2023-01-23T16:18:24.913Z,6.80
2023-01-23T16:21:31.281Z,6.80
2023-01-23T16:24:38.524Z,7.18
2023-01-23T16:27:40.460Z,7.25
2023-01-23T16:30:44.796Z,7.93
2023-01-23T16:33:46.351Z,8.32
2023-01-23T16:36:49.379Z,9.02
2023-01-23T16:39:50.691Z,7.90
2023-01-23T16:42:54.699Z,7.80
2023-01-23T16:45:57.032Z,7.33
2023-01-23T16:48:59.799Z,7.10
2023-01-23T16:52:01.357Z,7.80
2023-01-23T16:55:06.950Z,9.00
2023-01-23T16:58:16.487Z,8.55
2023-01-23T17:01:23.152Z,7.67
2023-01-23T17:04:24.543Z,8.57
2023-01-23T17:07:26.813Z,8.32
2023-01-23T17:10:41.198Z,7.50
2023-01-23T17:13:47.512Z,7.93
2023-01-23T17:16:53.024Z,8.45
2023-01-23T17:19:54.733Z,7.72
2023-01-23T17:22:59.925Z,7.43
2023-01-23T17:26:01.968Z,7.80
2023-01-23T17:29:03.429Z,8.13
2023-01-23T17:32:07.130Z,8.90
2023-01-23T17:35:20.186Z,8.68
2023-01-23T17:38:24.701Z,8.03
2023-01-23T17:41:26.437Z,8.30
2023-01-23T17:44:27.775Z,8.57
2023-01-23T17:47:32.288Z,9.07
2023-01-23T17:50:33.658Z,8.73
2023-01-23T17:53:35.755Z,9.70
2023-01-23T17:56:37.330Z,9.07
2023-01-23T17:59:40.162Z,7.07
2023-01-23T18:02:45.188Z,7.32
2023-01-23T18:05:46.768Z,7.22
2023-01-23T18:08:48.368Z,7.60
2023-01-23T18:11:52.263Z,7.43
2023-01-23T18:15:03.177Z,7.88
2023-01-23T18:18:19.609Z,7.72
2023-01-23T18:21:24.163Z,8.07
2023-01-23T18:24:29.450Z,8.13
2023-01-23T18:27:35.887Z,7.60
2023-01-23T18:30:47.720Z,7.38
2023-01-23T18:34:04.292Z,7.72
2023-01-23T18:37:20.482Z,8.18
2023-01-23T18:40:26.669Z,7.90
2023-01-23T18:43:38.945Z,7.10
2023-01-23T18:46:42.128Z,8.13
2023-01-23T18:49:44.595Z,8.48
2023-01-23T18:52:53.733Z,7.32
2023-01-23T18:56:11.112Z,7.87
2023-01-23T18:59:23.258Z,8.70
2023-01-23T19:02:31.167Z,7.53
2023-01-23T19:05:34.076Z,8.13
2023-01-23T19:08:35.689Z,7.90
2023-01-23T19:12:00.359Z,7.53
2023-01-23T19:15:10.746Z,7.30
2023-01-23T19:18:40.107Z,7.47
2023-01-23T19:21:45.645Z,7.30
2023-01-23T19:24:47.541Z,8.10
2023-01-23T19:27:52.027Z,7.60
2023-01-23T19:30:55.160Z,7.97
2023-01-23T19:33:59.052Z,7.57
2023-01-23T19:37:01.109Z,8.25
2023-01-23T19:40:03.921Z,7.50
2023-01-23T19:43:14.345Z,8.50
2023-01-23T19:46:17.386Z,7.20
2023-01-23T19:49:19.961Z,7.57
2023-01-23T19:52:22.200Z,8.43
2023-01-23T19:55:26.746Z,8.00
2023-01-23T20:01:53.237Z,9.10
2023-01-23T20:04:56.883Z,8.52
2023-01-23T20:08:01.508Z,7.30
2023-01-23T20:11:02.920Z,7.82
2023-01-23T20:14:04.304Z,8.20
2023-01-23T20:17:06.855Z,8.43
2023-01-23T20:20:10.537Z,8.48
2023-01-23T20:23:15.451Z,7.88
2023-01-23T20:26:18.507Z,7.82
2023-01-23T20:29:20.791Z,8.00
2023-01-23T20:32:22.241Z,8.70
2023-01-23T20:35:31.466Z,8.85
2023-01-23T20:38:34.177Z,7.80
2023-01-23T20:41:36.161Z,7.78
2023-01-23T20:44:39.026Z,8.17
2023-01-23T20:47:40.595Z,9.20
2023-01-23T20:50:43.190Z,8.68
2023-01-23T20:53:45.555Z,7.63
2023-01-23T20:56:48.097Z,8.52
2023-01-23T20:59:49.551Z,7.87
2023-01-23T21:02:52.603Z,9.03
2023-01-23T21:05:55.454Z,8.23
2023-01-23T21:08:58.569Z,8.30
2023-01-23T21:12:01.337Z,8.75
2023-01-23T21:15:04.386Z,8.00
2023-01-23T21:18:05.635Z,8.00
2023-01-23T21:21:11.078Z,7.43
2023-01-23T21:24:13.401Z,7.70
2023-01-23T21:27:15.983Z,7.47
2023-01-23T21:30:18.053Z,8.00
2023-01-23T21:33:20.699Z,7.80
2023-01-23T21:36:25.449Z,7.68
2023-01-23T21:39:27.627Z,7.45
2023-01-23T21:42:30.262Z,7.53
2023-01-23T21:45:34.239Z,7.63
2023-01-23T21:48:37.371Z,7.83
2023-01-23T21:51:38.763Z,7.28
2023-01-23T21:54:43.200Z,7.38
2023-01-23T21:57:44.786Z,7.65
2023-01-23T22:01:05.901Z,7.07
2023-01-23T22:04:10.954Z,7.37
2023-01-23T22:07:12.266Z,7.07
2023-01-23T22:10:16.511Z,7.20
2023-01-23T22:13:17.819Z,7.35
2023-01-23T22:16:22.903Z,7.97
2023-01-23T22:19:31.004Z,7.70
2023-01-23T22:22:32.337Z,7.78
2023-01-23T22:25:35.601Z,8.18
2023-01-23T22:28:38.115Z,8.05
2023-01-23T22:31:40.873Z,6.80
2023-01-23T22:34:42.322Z,8.33
2023-01-23T22:37:45.070Z,7.82
2023-01-23T22:40:57.219Z,8.10
2023-01-23T22:44:00.020Z,8.57
2023-01-23T22:47:02.203Z,8.43
2023-01-23T22:50:05.226Z,8.50
2023-01-23T22:53:06.643Z,8.95
2023-01-23T22:56:10.818Z,9.38
2023-01-23T22:59:12.254Z,8.40
2023-01-23T23:02:15.561Z,8.60
2023-01-23T23:05:17.055Z,8.03
2023-01-23T23:08:19.671Z,8.77
2023-01-23T23:11:24.375Z,9.70
2023-01-23T23:14:25.704Z,8.23
2023-01-23T23:17:30.438Z,8.83
2023-01-23T23:20:32.184Z,8.27
2023-01-23T23:23:35.338Z,9.10
2023-01-23T23:26:37.333Z,7.90
2023-01-23T23:29:40.118Z,9.00
2023-01-23T23:32:41.625Z,8.20
2023-01-23T23:35:45.042Z,9.45
2023-01-23T23:38:46.406Z,8.57
2023-01-23T23:41:49.898Z,8.60
2023-01-23T23:44:51.623Z,8.50
2023-01-23T23:47:55.612Z,9.70
2023-01-23T23:50:59.804Z,7.97
2023-01-23T23:54:02.481Z,9.10
2023-01-23T23:57:05.791Z,8.73
